sensor_id;sensor_type;location;lat;lon;timestamp;P1;durP1;ratioP1;P2;durP2;ratioP2
71975;SDS011;68326;52.124;5.424;2023-03-17T00:01:38;6.30;;;1.55;;
71975;SDS011;68326;52.124;5.424;2023-03-17T00:04:05;3.07;;;1.43;;
71975;SDS011;68326;52.124;5.424;2023-03-17T00:06:32;4.07;;;1.50;;
71975;SDS011;68326;52.124;5.424;2023-03-17T00:09:00;5.25;;;1.55;;
71975;SDS011;68326;52.124;5.424;2023-03-17T00:11:27;4.07;;;1.33;;
71975;SDS011;68326;52.124;5.424;2023-03-17T00:13:53;3.60;;;1.45;;
71975;SDS011;68326;52.124;5.424;2023-03-17T00:18:53;3.53;;;1.65;;
71975;SDS011;68326;52.124;5.424;2023-03-17T00:21:29;3.03;;;1.60;;
71975;SDS011;68326;52.124;5.424;2023-03-17T00:23:57;3.42;;;1.80;;
71975;SDS011;68326;52.124;5.424;2023-03-17T00:26:25;3.50;;;1.40;;
71975;SDS011;68326;52.124;5.424;2023-03-17T00:28:52;2.53;;;1.47;;
71975;SDS011;68326;52.124;5.424;2023-03-17T00:31:21;4.95;;;1.20;;
71975;SDS011;68326;52.124;5.424;2023-03-17T00:33:50;3.00;;;1.45;;
71975;SDS011;68326;52.124;5.424;2023-03-17T00:36:20;4.32;;;1.65;;
71975;SDS011;68326;52.124;5.424;2023-03-17T00:38:49;2.92;;;1.80;;
71975;SDS011;68326;52.124;5.424;2023-03-17T00:41:17;2.57;;;1.30;;
71975;SDS011;68326;52.124;5.424;2023-03-17T00:43:44;3.08;;;1.60;;
71975;SDS011;68326;52.124;5.424;2023-03-17T00:46:11;4.93;;;1.63;;
71975;SDS011;68326;52.124;5.424;2023-03-17T00:48:40;2.55;;;1.55;;
71975;SDS011;68326;52.124;5.424;2023-03-17T00:51:08;4.68;;;1.58;;
71975;SDS011;68326;52.124;5.424;2023-03-17T00:53:35;3.60;;;1.50;;
71975;SDS011;68326;52.124;5.424;2023-03-17T00:56:01;4.60;;;1.63;;
71975;SDS011;68326;52.124;5.424;2023-03-17T00:58:29;4.00;;;1.63;;
71975;SDS011;68326;52.124;5.424;2023-03-17T01:00:59;3.03;;;1.52;;
71975;SDS011;68326;52.124;5.424;2023-03-17T01:03:26;4.63;;;1.77;;
71975;SDS011;68326;52.124;5.424;2023-03-17T01:05:53;3.43;;;1.43;;
71975;SDS011;68326;52.124;5.424;2023-03-17T01:08:22;2.60;;;1.60;;
71975;SDS011;68326;52.124;5.424;2023-03-17T01:10:50;5.07;;;1.52;;
71975;SDS011;68326;52.124;5.424;2023-03-17T01:13:17;3.08;;;1.52;;
71975;SDS011;68326;52.124;5.424;2023-03-17T01:15:44;4.40;;;1.50;;
71975;SDS011;68326;52.124;5.424;2023-03-17T01:18:14;3.23;;;1.47;;
71975;SDS011;68326;52.124;5.424;2023-03-17T01:20:42;4.30;;;1.80;;
71975;SDS011;68326;52.124;5.424;2023-03-17T01:23:09;2.75;;;1.23;;
71975;SDS011;68326;52.124;5.424;2023-03-17T01:25:38;2.30;;;1.35;;
71975;SDS011;68326;52.124;5.424;2023-03-17T01:28:06;3.67;;;1.50;;
71975;SDS011;68326;52.124;5.424;2023-03-17T01:30:36;3.50;;;1.23;;
71975;SDS011;68326;52.124;5.424;2023-03-17T01:33:07;3.25;;;1.30;;
71975;SDS011;68326;52.124;5.424;2023-03-17T01:35:35;2.88;;;1.50;;
71975;SDS011;68326;52.124;5.424;2023-03-17T01:38:03;4.10;;;1.40;;
71975;SDS011;68326;52.124;5.424;2023-03-17T01:40:32;2.88;;;1.50;;
71975;SDS011;68326;52.124;5.424;2023-03-17T01:49:02;3.17;;;1.20;;
71975;SDS011;68326;52.124;5.424;2023-03-17T01:52:11;3.65;;;1.30;;
71975;SDS011;68326;52.124;5.424;2023-03-17T01:57:50;2.73;;;1.17;;
71975;SDS011;68326;52.124;5.424;2023-03-17T02:00:20;5.00;;;1.70;;
71975;SDS011;68326;52.124;5.424;2023-03-17T02:02:50;3.00;;;1.20;;
71975;SDS011;68326;52.124;5.424;2023-03-17T02:05:25;3.03;;;1.35;;
71975;SDS011;68326;52.124;5.424;2023-03-17T02:07:53;4.25;;;1.55;;
71975;SDS011;68326;52.124;5.424;2023-03-17T02:10:21;3.33;;;1.20;;
71975;SDS011;68326;52.124;5.424;2023-03-17T02:12:51;2.78;;;1.35;;
71975;SDS011;68326;52.124;5.424;2023-03-17T02:15:21;3.92;;;1.40;;
71975;SDS011;68326;52.124;5.424;2023-03-17T02:17:49;2.65;;;1.27;;
71975;SDS011;68326;52.124;5.424;2023-03-17T02:22:48;2.07;;;0.90;;
71975;SDS011;68326;52.124;5.424;2023-03-17T02:25:17;3.78;;;1.35;;
71975;SDS011;68326;52.124;5.424;2023-03-17T02:27:50;2.85;;;1.15;;
71975;SDS011;68326;52.124;5.424;2023-03-17T02:30:20;2.25;;;1.20;;
71975;SDS011;68326;52.124;5.424;2023-03-17T02:32:49;6.70;;;1.50;;
71975;SDS011;68326;52.124;5.424;2023-03-17T02:35:16;2.30;;;1.13;;
71975;SDS011;68326;52.124;5.424;2023-03-17T02:37:44;2.35;;;1.10;;
71975;SDS011;68326;52.124;5.424;2023-03-17T02:40:12;4.10;;;1.35;;
71975;SDS011;68326;52.124;5.424;2023-03-17T02:42:40;3.35;;;1.25;;
71975;SDS011;68326;52.124;5.424;2023-03-17T02:45:07;3.47;;;1.20;;
71975;SDS011;68326;52.124;5.424;2023-03-17T02:47:36;3.30;;;1.13;;
71975;SDS011;68326;52.124;5.424;2023-03-17T02:50:03;2.38;;;1.20;;
71975;SDS011;68326;52.124;5.424;2023-03-17T02:52:32;2.67;;;1.25;;
71975;SDS011;68326;52.124;5.424;2023-03-17T02:54:58;1.92;;;1.00;;
71975;SDS011;68326;52.124;5.424;2023-03-17T02:57:25;3.13;;;1.27;;
71975;SDS011;68326;52.124;5.424;2023-03-17T02:59:51;1.83;;;1.00;;
71975;SDS011;68326;52.124;5.424;2023-03-17T03:02:18;3.05;;;1.25;;
71975;SDS011;68326;52.124;5.424;2023-03-17T03:04:44;2.92;;;1.38;;
71975;SDS011;68326;52.124;5.424;2023-03-17T03:07:11;2.55;;;1.23;;
71975;SDS011;68326;52.124;5.424;2023-03-17T03:09:37;2.08;;;0.90;;
71975;SDS011;68326;52.124;5.424;2023-03-17T03:12:05;3.20;;;1.00;;
71975;SDS011;68326;52.124;5.424;2023-03-17T03:14:35;2.15;;;1.13;;
71975;SDS011;68326;52.124;5.424;2023-03-17T03:17:01;2.38;;;1.20;;
71975;SDS011;68326;52.124;5.424;2023-03-17T03:19:29;3.05;;;0.77;;
71975;SDS011;68326;52.124;5.424;2023-03-17T03:21:56;3.83;;;1.13;;
71975;SDS011;68326;52.124;5.424;2023-03-17T03:24:22;2.13;;;1.07;;
71975;SDS011;68326;52.124;5.424;2023-03-17T03:26:49;3.10;;;1.20;;
71975;SDS011;68326;52.124;5.424;2023-03-17T03:29:15;1.92;;;0.95;;
71975;SDS011;68326;52.124;5.424;2023-03-17T03:31:42;2.97;;;1.02;;
71975;SDS011;68326;52.124;5.424;2023-03-17T03:34:09;3.08;;;1.33;;
71975;SDS011;68326;52.124;5.424;2023-03-17T03:36:36;3.40;;;1.20;;
71975;SDS011;68326;52.124;5.424;2023-03-17T03:39:02;2.50;;;1.05;;
71975;SDS011;68326;52.124;5.424;2023-03-17T03:41:28;3.63;;;1.35;;
71975;SDS011;68326;52.124;5.424;2023-03-17T03:43:55;2.90;;;1.38;;
71975;SDS011;68326;52.124;5.424;2023-03-17T03:46:22;2.53;;;1.10;;
71975;SDS011;68326;52.124;5.424;2023-03-17T03:48:48;2.20;;;1.20;;
71975;SDS011;68326;52.124;5.424;2023-03-17T03:51:15;2.67;;;1.25;;
71975;SDS011;68326;52.124;5.424;2023-03-17T03:53:41;4.60;;;1.00;;
71975;SDS011;68326;52.124;5.424;2023-03-17T03:56:08;2.22;;;0.77;;
71975;SDS011;68326;52.124;5.424;2023-03-17T03:58:35;3.90;;;1.02;;
71975;SDS011;68326;52.124;5.424;2023-03-17T04:01:05;2.10;;;0.83;;
71975;SDS011;68326;52.124;5.424;2023-03-17T04:03:32;2.13;;;1.00;;
71975;SDS011;68326;52.124;5.424;2023-03-17T04:05:58;3.15;;;1.05;;
71975;SDS011;68326;52.124;5.424;2023-03-17T04:08:25;2.63;;;1.15;;
71975;SDS011;68326;52.124;5.424;2023-03-17T04:10:52;2.80;;;1.20;;
71975;SDS011;68326;52.124;5.424;2023-03-17T04:13:18;3.33;;;1.07;;
71975;SDS011;68326;52.124;5.424;2023-03-17T04:15:45;3.83;;;1.20;;
71975;SDS011;68326;52.124;5.424;2023-03-17T04:18:11;4.95;;;0.90;;
71975;SDS011;68326;52.124;5.424;2023-03-17T04:20:38;3.50;;;1.20;;
71975;SDS011;68326;52.124;5.424;2023-03-17T04:23:04;3.13;;;1.15;;
71975;SDS011;68326;52.124;5.424;2023-03-17T04:25:31;2.13;;;0.90;;
71975;SDS011;68326;52.124;5.424;2023-03-17T04:27:57;2.50;;;1.08;;
71975;SDS011;68326;52.124;5.424;2023-03-17T04:30:24;2.30;;;0.90;;
71975;SDS011;68326;52.124;5.424;2023-03-17T04:32:50;3.58;;;1.02;;
71975;SDS011;68326;52.124;5.424;2023-03-17T04:35:18;2.72;;;1.10;;
71975;SDS011;68326;52.124;5.424;2023-03-17T04:37:48;2.47;;;0.80;;
71975;SDS011;68326;52.124;5.424;2023-03-17T04:40:15;4.07;;;0.85;;
71975;SDS011;68326;52.124;5.424;2023-03-17T04:42:43;3.22;;;1.77;;
71975;SDS011;68326;52.124;5.424;2023-03-17T04:45:10;2.85;;;0.95;;
71975;SDS011;68326;52.124;5.424;2023-03-17T04:47:37;2.45;;;0.95;;
71975;SDS011;68326;52.124;5.424;2023-03-17T04:50:04;3.43;;;1.00;;
71975;SDS011;68326;52.124;5.424;2023-03-17T04:52:33;2.70;;;0.90;;
71975;SDS011;68326;52.124;5.424;2023-03-17T04:55:01;2.13;;;1.00;;
71975;SDS011;68326;52.124;5.424;2023-03-17T04:57:28;2.08;;;1.00;;
71975;SDS011;68326;52.124;5.424;2023-03-17T04:59:55;2.47;;;1.00;;
71975;SDS011;68326;52.124;5.424;2023-03-17T05:02:22;2.03;;;0.90;;
71975;SDS011;68326;52.124;5.424;2023-03-17T05:04:49;3.45;;;0.93;;
71975;SDS011;68326;52.124;5.424;2023-03-17T05:07:15;2.22;;;0.90;;
71975;SDS011;68326;52.124;5.424;2023-03-17T05:09:42;2.33;;;0.60;;
71975;SDS011;68326;52.124;5.424;2023-03-17T05:12:08;2.30;;;0.90;;
71975;SDS011;68326;52.124;5.424;2023-03-17T05:14:35;2.53;;;1.07;;
71975;SDS011;68326;52.124;5.424;2023-03-17T05:17:02;3.72;;;1.10;;
71975;SDS011;68326;52.124;5.424;2023-03-17T05:19:29;3.28;;;1.00;;
71975;SDS011;68326;52.124;5.424;2023-03-17T05:21:55;2.72;;;0.85;;
71975;SDS011;68326;52.124;5.424;2023-03-17T05:24:22;3.80;;;1.20;;
71975;SDS011;68326;52.124;5.424;2023-03-17T05:26:48;2.27;;;0.87;;
71975;SDS011;68326;52.124;5.424;2023-03-17T05:29:15;3.28;;;0.80;;
71975;SDS011;68326;52.124;5.424;2023-03-17T05:31:45;2.88;;;1.13;;
71975;SDS011;68326;52.124;5.424;2023-03-17T05:34:12;2.72;;;0.80;;
71975;SDS011;68326;52.124;5.424;2023-03-17T05:36:39;3.47;;;1.00;;
71975;SDS011;68326;52.124;5.424;2023-03-17T05:39:05;3.20;;;1.10;;
71975;SDS011;68326;52.124;5.424;2023-03-17T05:41:32;5.03;;;0.93;;
71975;SDS011;68326;52.124;5.424;2023-03-17T05:43:59;1.90;;;0.85;;
71975;SDS011;68326;52.124;5.424;2023-03-17T05:46:25;2.38;;;1.00;;
71975;SDS011;68326;52.124;5.424;2023-03-17T05:48:52;4.32;;;1.08;;
71975;SDS011;68326;52.124;5.424;2023-03-17T05:51:18;3.10;;;1.03;;
71975;SDS011;68326;52.124;5.424;2023-03-17T05:53:45;2.72;;;0.90;;
71975;SDS011;68326;52.124;5.424;2023-03-17T05:56:12;2.05;;;0.95;;
71975;SDS011;68326;52.124;5.424;2023-03-17T05:58:38;2.78;;;0.98;;
71975;SDS011;68326;52.124;5.424;2023-03-17T06:01:05;2.00;;;0.90;;
71975;SDS011;68326;52.124;5.424;2023-03-17T06:03:31;3.50;;;1.17;;
71975;SDS011;68326;52.124;5.424;2023-03-17T06:05:57;2.92;;;0.75;;
71975;SDS011;68326;52.124;5.424;2023-03-17T06:08:24;5.97;;;1.48;;
71975;SDS011;68326;52.124;5.424;2023-03-17T06:10:50;2.97;;;0.90;;
71975;SDS011;68326;52.124;5.424;2023-03-17T06:13:17;2.80;;;1.05;;
71975;SDS011;68326;52.124;5.424;2023-03-17T06:15:44;2.87;;;1.20;;
71975;SDS011;68326;52.124;5.424;2023-03-17T06:18:13;2.78;;;1.15;;
71975;SDS011;68326;52.124;5.424;2023-03-17T06:20:39;4.43;;;1.00;;
71975;SDS011;68326;52.124;5.424;2023-03-17T06:23:06;3.67;;;1.00;;
71975;SDS011;68326;52.124;5.424;2023-03-17T06:25:33;2.90;;;1.10;;
71975;SDS011;68326;52.124;5.424;2023-03-17T06:28:00;2.23;;;0.80;;
71975;SDS011;68326;52.124;5.424;2023-03-17T06:30:29;3.55;;;1.17;;
71975;SDS011;68326;52.124;5.424;2023-03-17T06:32:59;4.57;;;0.90;;
71975;SDS011;68326;52.124;5.424;2023-03-17T06:35:26;2.47;;;0.90;;
71975;SDS011;68326;52.124;5.424;2023-03-17T06:37:53;3.65;;;0.90;;
71975;SDS011;68326;52.124;5.424;2023-03-17T06:40:20;2.80;;;0.73;;
71975;SDS011;68326;52.124;5.424;2023-03-17T06:42:47;6.53;;;1.23;;
71975;SDS011;68326;52.124;5.424;2023-03-17T06:45:13;2.50;;;0.98;;
71975;SDS011;68326;52.124;5.424;2023-03-17T06:47:41;2.63;;;0.73;;
71975;SDS011;68326;52.124;5.424;2023-03-17T06:50:07;5.32;;;1.35;;
71975;SDS011;68326;52.124;5.424;2023-03-17T06:52:35;3.03;;;1.10;;
71975;SDS011;68326;52.124;5.424;2023-03-17T06:55:03;3.85;;;1.33;;
71975;SDS011;68326;52.124;5.424;2023-03-17T06:57:30;2.75;;;1.10;;
71975;SDS011;68326;52.124;5.424;2023-03-17T06:59:57;3.25;;;0.82;;
71975;SDS011;68326;52.124;5.424;2023-03-17T07:02:23;2.03;;;1.00;;
71975;SDS011;68326;52.124;5.424;2023-03-17T07:04:50;4.97;;;1.30;;
71975;SDS011;68326;52.124;5.424;2023-03-17T07:07:17;2.50;;;0.95;;
71975;SDS011;68326;52.124;5.424;2023-03-17T07:09:45;4.90;;;1.20;;
71975;SDS011;68326;52.124;5.424;2023-03-17T07:12:12;3.38;;;1.10;;
71975;SDS011;68326;52.124;5.424;2023-03-17T07:14:39;5.32;;;1.25;;
71975;SDS011;68326;52.124;5.424;2023-03-17T07:17:09;2.53;;;1.10;;
71975;SDS011;68326;52.124;5.424;2023-03-17T07:19:37;2.78;;;1.35;;
71975;SDS011;68326;52.124;5.424;2023-03-17T07:22:04;2.53;;;1.30;;
71975;SDS011;68326;52.124;5.424;2023-03-17T07:24:30;2.38;;;1.10;;
71975;SDS011;68326;52.124;5.424;2023-03-17T07:26:57;2.28;;;1.13;;
71975;SDS011;68326;52.124;5.424;2023-03-17T07:29:23;5.30;;;1.40;;
71975;SDS011;68326;52.124;5.424;2023-03-17T07:31:50;4.05;;;1.30;;
71975;SDS011;68326;52.124;5.424;2023-03-17T07:34:16;4.00;;;1.42;;
71975;SDS011;68326;52.124;5.424;2023-03-17T07:36:43;5.45;;;1.58;;
71975;SDS011;68326;52.124;5.424;2023-03-17T07:39:10;3.65;;;1.58;;
71975;SDS011;68326;52.124;5.424;2023-03-17T07:41:37;4.37;;;1.47;;
71975;SDS011;68326;52.124;5.424;2023-03-17T07:44:04;4.35;;;1.23;;
71975;SDS011;68326;52.124;5.424;2023-03-17T07:46:30;3.28;;;1.52;;
71975;SDS011;68326;52.124;5.424;2023-03-17T07:48:57;3.35;;;1.30;;
71975;SDS011;68326;52.124;5.424;2023-03-17T07:51:23;2.55;;;1.27;;
71975;SDS011;68326;52.124;5.424;2023-03-17T07:53:53;4.53;;;1.70;;
71975;SDS011;68326;52.124;5.424;2023-03-17T07:56:29;4.60;;;1.42;;
71975;SDS011;68326;52.124;5.424;2023-03-17T07:58:56;2.15;;;1.10;;
71975;SDS011;68326;52.124;5.424;2023-03-17T08:01:26;2.72;;;1.52;;
71975;SDS011;68326;52.124;5.424;2023-03-17T08:03:54;4.40;;;1.38;;
71975;SDS011;68326;52.124;5.424;2023-03-17T08:06:21;3.17;;;1.33;;
71975;SDS011;68326;52.124;5.424;2023-03-17T08:08:51;3.35;;;1.50;;
71975;SDS011;68326;52.124;5.424;2023-03-17T08:11:18;6.22;;;1.77;;
71975;SDS011;68326;52.124;5.424;2023-03-17T08:13:45;3.22;;;1.20;;
71975;SDS011;68326;52.124;5.424;2023-03-17T08:16:12;3.92;;;1.67;;
71975;SDS011;68326;52.124;5.424;2023-03-17T08:18:39;6.70;;;1.83;;
71975;SDS011;68326;52.124;5.424;2023-03-17T08:21:06;3.67;;;1.40;;
71975;SDS011;68326;52.124;5.424;2023-03-17T08:23:32;3.28;;;1.27;;
71975;SDS011;68326;52.124;5.424;2023-03-17T08:26:00;4.45;;;1.70;;
71975;SDS011;68326;52.124;5.424;2023-03-17T08:28:28;3.97;;;1.42;;
71975;SDS011;68326;52.124;5.424;2023-03-17T08:31:04;2.80;;;1.50;;
71975;SDS011;68326;52.124;5.424;2023-03-17T08:33:41;3.58;;;1.40;;
71975;SDS011;68326;52.124;5.424;2023-03-17T08:36:08;4.20;;;1.70;;
71975;SDS011;68326;52.124;5.424;2023-03-17T08:38:36;3.75;;;1.70;;
71975;SDS011;68326;52.124;5.424;2023-03-17T08:41:05;3.38;;;1.40;;
71975;SDS011;68326;52.124;5.424;2023-03-17T08:43:34;3.03;;;1.70;;
71975;SDS011;68326;52.124;5.424;2023-03-17T08:46:03;2.97;;;1.77;;
71975;SDS011;68326;52.124;5.424;2023-03-17T08:48:37;4.80;;;1.70;;
71975;SDS011;68326;52.124;5.424;2023-03-17T08:51:03;3.45;;;1.40;;
71975;SDS011;68326;52.124;5.424;2023-03-17T08:53:32;5.00;;;1.58;;
71975;SDS011;68326;52.124;5.424;2023-03-17T08:56:00;4.53;;;1.97;;
71975;SDS011;68326;52.124;5.424;2023-03-17T08:58:27;5.00;;;1.80;;
71975;SDS011;68326;52.124;5.424;2023-03-17T09:00:57;3.33;;;1.70;;
71975;SDS011;68326;52.124;5.424;2023-03-17T09:03:25;2.83;;;1.70;;
71975;SDS011;68326;52.124;5.424;2023-03-17T09:05:52;5.15;;;1.80;;
71975;SDS011;68326;52.124;5.424;2023-03-17T09:08:20;6.73;;;1.87;;
71975;SDS011;68326;52.124;5.424;2023-03-17T09:10:47;6.28;;;1.63;;
71975;SDS011;68326;52.124;5.424;2023-03-17T09:13:14;3.80;;;1.80;;
71975;SDS011;68326;52.124;5.424;2023-03-17T09:15:41;3.83;;;1.40;;
71975;SDS011;68326;52.124;5.424;2023-03-17T09:18:08;3.47;;;2.00;;
71975;SDS011;68326;52.124;5.424;2023-03-17T09:20:35;3.77;;;1.77;;
71975;SDS011;68326;52.124;5.424;2023-03-17T09:23:06;6.75;;;2.03;;
71975;SDS011;68326;52.124;5.424;2023-03-17T09:25:34;4.25;;;1.95;;
71975;SDS011;68326;52.124;5.424;2023-03-17T09:28:01;3.92;;;2.03;;
71975;SDS011;68326;52.124;5.424;2023-03-17T09:30:28;6.32;;;1.98;;
71975;SDS011;68326;52.124;5.424;2023-03-17T09:32:56;4.23;;;1.80;;
71975;SDS011;68326;52.124;5.424;2023-03-17T09:35:23;3.95;;;1.90;;
71975;SDS011;68326;52.124;5.424;2023-03-17T09:37:50;4.13;;;2.00;;
71975;SDS011;68326;52.124;5.424;2023-03-17T09:40:18;3.38;;;1.98;;
71975;SDS011;68326;52.124;5.424;2023-03-17T09:45:36;4.63;;;2.00;;
71975;SDS011;68326;52.124;5.424;2023-03-17T09:48:21;3.95;;;1.90;;
71975;SDS011;68326;52.124;5.424;2023-03-17T09:51:00;4.68;;;2.25;;
71975;SDS011;68326;52.124;5.424;2023-03-17T09:53:35;3.45;;;2.00;;
71975;SDS011;68326;52.124;5.424;2023-03-17T09:56:12;3.17;;;2.08;;
71975;SDS011;68326;52.124;5.424;2023-03-17T09:58:43;4.10;;;1.90;;
71975;SDS011;68326;52.124;5.424;2023-03-17T10:01:16;4.15;;;2.20;;
71975;SDS011;68326;52.124;5.424;2023-03-17T10:03:43;4.55;;;2.08;;
71975;SDS011;68326;52.124;5.424;2023-03-17T10:08:48;4.82;;;2.28;;
71975;SDS011;68326;52.124;5.424;2023-03-17T10:25:50;5.23;;;2.17;;
71975;SDS011;68326;52.124;5.424;2023-03-17T10:30:53;4.55;;;2.28;;
71975;SDS011;68326;52.124;5.424;2023-03-17T10:33:22;5.93;;;2.42;;
71975;SDS011;68326;52.124;5.424;2023-03-17T10:35:49;4.25;;;1.95;;
71975;SDS011;68326;52.124;5.424;2023-03-17T10:38:22;5.47;;;1.90;;
71975;SDS011;68326;52.124;5.424;2023-03-17T10:40:56;6.13;;;2.35;;
71975;SDS011;68326;52.124;5.424;2023-03-17T10:43:26;4.82;;;2.13;;
71975;SDS011;68326;52.124;5.424;2023-03-17T10:45:59;4.57;;;1.70;;
71975;SDS011;68326;52.124;5.424;2023-03-17T10:48:34;7.40;;;2.55;;
71975;SDS011;68326;52.124;5.424;2023-03-17T10:51:12;4.57;;;2.27;;
71975;SDS011;68326;52.124;5.424;2023-03-17T10:53:47;5.57;;;2.95;;
71975;SDS011;68326;52.124;5.424;2023-03-17T10:56:22;4.63;;;2.28;;
71975;SDS011;68326;52.124;5.424;2023-03-17T10:58:51;3.92;;;1.98;;
71975;SDS011;68326;52.124;5.424;2023-03-17T11:01:21;5.53;;;2.20;;
71975;SDS011;68326;52.124;5.424;2023-03-17T11:04:01;4.80;;;1.60;;
71975;SDS011;68326;52.124;5.424;2023-03-17T11:06:32;4.57;;;2.30;;
71975;SDS011;68326;52.124;5.424;2023-03-17T11:09:10;6.53;;;2.30;;
71975;SDS011;68326;52.124;5.424;2023-03-17T11:11:45;5.20;;;2.05;;
71975;SDS011;68326;52.124;5.424;2023-03-17T11:14:16;4.20;;;2.00;;
71975;SDS011;68326;52.124;5.424;2023-03-17T11:22:10;7.07;;;2.63;;
71975;SDS011;68326;52.124;5.424;2023-03-17T11:25:26;5.05;;;2.17;;
71975;SDS011;68326;52.124;5.424;2023-03-17T11:27:35;4.55;;;2.28;;
71975;SDS011;68326;52.124;5.424;2023-03-17T11:30:21;4.40;;;2.70;;
71975;SDS011;68326;52.124;5.424;2023-03-17T11:33:12;3.75;;;2.30;;
71975;SDS011;68326;52.124;5.424;2023-03-17T11:35:48;5.68;;;2.60;;
71975;SDS011;68326;52.124;5.424;2023-03-17T11:38:30;6.72;;;2.30;;
71975;SDS011;68326;52.124;5.424;2023-03-17T11:43:41;4.17;;;2.40;;
71975;SDS011;68326;52.124;5.424;2023-03-17T11:46:28;6.63;;;2.60;;
71975;SDS011;68326;52.124;5.424;2023-03-17T11:49:20;5.40;;;3.13;;
71975;SDS011;68326;52.124;5.424;2023-03-17T11:51:54;4.78;;;2.70;;
71975;SDS011;68326;52.124;5.424;2023-03-17T11:54:32;4.35;;;2.88;;
71975;SDS011;68326;52.124;5.424;2023-03-17T11:57:04;3.73;;;2.40;;
71975;SDS011;68326;52.124;5.424;2023-03-17T11:59:51;5.57;;;2.33;;
71975;SDS011;68326;52.124;5.424;2023-03-17T12:05:05;3.05;;;2.25;;
71975;SDS011;68326;52.124;5.424;2023-03-17T12:07:51;5.63;;;2.70;;
71975;SDS011;68326;52.124;5.424;2023-03-17T12:10:24;3.60;;;2.20;;
71975;SDS011;68326;52.124;5.424;2023-03-17T12:13:12;4.60;;;2.42;;
71975;SDS011;68326;52.124;5.424;2023-03-17T12:15:50;5.60;;;2.88;;
71975;SDS011;68326;52.124;5.424;2023-03-17T12:18:31;6.68;;;2.58;;
71975;SDS011;68326;52.124;5.424;2023-03-17T12:21:06;5.05;;;2.47;;
71975;SDS011;68326;52.124;5.424;2023-03-17T12:23:50;6.30;;;2.63;;
71975;SDS011;68326;52.124;5.424;2023-03-17T12:26:34;5.30;;;3.15;;
71975;SDS011;68326;52.124;5.424;2023-03-17T12:32:17;6.68;;;2.70;;
71975;SDS011;68326;52.124;5.424;2023-03-17T12:34:51;4.95;;;2.97;;
71975;SDS011;68326;52.124;5.424;2023-03-17T12:37:22;4.97;;;2.77;;
71975;SDS011;68326;52.124;5.424;2023-03-17T12:39:57;5.15;;;2.78;;
71975;SDS011;68326;52.124;5.424;2023-03-17T12:54:44;4.07;;;2.58;;
71975;SDS011;68326;52.124;5.424;2023-03-17T12:57:09;4.97;;;2.78;;
71975;SDS011;68326;52.124;5.424;2023-03-17T12:59:46;6.13;;;3.13;;
71975;SDS011;68326;52.124;5.424;2023-03-17T13:04:54;4.43;;;2.93;;
71975;SDS011;68326;52.124;5.424;2023-03-17T13:07:30;5.07;;;2.78;;
71975;SDS011;68326;52.124;5.424;2023-03-17T13:15:27;5.47;;;3.30;;
71975;SDS011;68326;52.124;5.424;2023-03-17T13:20:42;5.68;;;3.38;;
71975;SDS011;68326;52.124;5.424;2023-03-17T13:52:29;5.18;;;2.97;;
71975;SDS011;68326;52.124;5.424;2023-03-17T13:54:41;6.35;;;3.38;;
71975;SDS011;68326;52.124;5.424;2023-03-17T14:02:41;6.50;;;3.17;;
71975;SDS011;68326;52.124;5.424;2023-03-17T14:05:18;4.93;;;3.35;;
71975;SDS011;68326;52.124;5.424;2023-03-17T14:07:59;6.38;;;3.30;;
71975;SDS011;68326;52.124;5.424;2023-03-17T14:10:30;6.57;;;3.43;;
71975;SDS011;68326;52.124;5.424;2023-03-17T14:16:04;6.55;;;3.80;;
71975;SDS011;68326;52.124;5.424;2023-03-17T14:18:41;5.85;;;3.28;;
71975;SDS011;68326;52.124;5.424;2023-03-17T14:21:18;6.20;;;3.30;;
71975;SDS011;68326;52.124;5.424;2023-03-17T14:23:54;7.43;;;3.40;;
71975;SDS011;68326;52.124;5.424;2023-03-17T14:26:22;5.13;;;3.20;;
71975;SDS011;68326;52.124;5.424;2023-03-17T14:28:50;4.95;;;3.50;;
71975;SDS011;68326;52.124;5.424;2023-03-17T14:31:21;4.85;;;3.03;;
71975;SDS011;68326;52.124;5.424;2023-03-17T14:33:50;6.15;;;3.35;;
71975;SDS011;68326;52.124;5.424;2023-03-17T14:36:27;7.40;;;3.43;;
71975;SDS011;68326;52.124;5.424;2023-03-17T14:38:57;7.30;;;3.70;;
71975;SDS011;68326;52.124;5.424;2023-03-17T14:41:25;6.53;;;3.60;;
71975;SDS011;68326;52.124;5.424;2023-03-17T14:43:55;7.15;;;3.38;;
71975;SDS011;68326;52.124;5.424;2023-03-17T14:46:24;6.40;;;3.47;;
71975;SDS011;68326;52.124;5.424;2023-03-17T14:48:57;6.30;;;3.27;;
71975;SDS011;68326;52.124;5.424;2023-03-17T14:54:20;6.65;;;3.47;;
71975;SDS011;68326;52.124;5.424;2023-03-17T14:56:50;5.93;;;3.95;;
71975;SDS011;68326;52.124;5.424;2023-03-17T14:59:29;6.00;;;3.28;;
71975;SDS011;68326;52.124;5.424;2023-03-17T15:02:26;8.17;;;4.40;;
71975;SDS011;68326;52.124;5.424;2023-03-17T15:05:02;6.07;;;3.42;;
71975;SDS011;68326;52.124;5.424;2023-03-17T15:07:46;5.75;;;3.20;;
71975;SDS011;68326;52.124;5.424;2023-03-17T15:10:14;7.15;;;3.45;;
71975;SDS011;68326;52.124;5.424;2023-03-17T15:12:43;5.15;;;3.20;;
71975;SDS011;68326;52.124;5.424;2023-03-17T15:15:24;6.17;;;3.60;;
71975;SDS011;68326;52.124;5.424;2023-03-17T15:17:54;6.78;;;3.10;;
71975;SDS011;68326;52.124;5.424;2023-03-17T15:20:23;5.40;;;3.35;;
71975;SDS011;68326;52.124;5.424;2023-03-17T15:22:57;7.03;;;3.08;;
71975;SDS011;68326;52.124;5.424;2023-03-17T15:25:31;5.68;;;2.65;;
71975;SDS011;68326;52.124;5.424;2023-03-17T15:27:58;5.83;;;3.00;;
71975;SDS011;68326;52.124;5.424;2023-03-17T15:30:25;6.63;;;3.45;;
71975;SDS011;68326;52.124;5.424;2023-03-17T15:32:58;7.38;;;3.30;;
71975;SDS011;68326;52.124;5.424;2023-03-17T15:35:26;7.70;;;3.35;;
71975;SDS011;68326;52.124;5.424;2023-03-17T15:37:54;6.72;;;3.47;;
71975;SDS011;68326;52.124;5.424;2023-03-17T15:40:21;8.50;;;3.30;;
71975;SDS011;68326;52.124;5.424;2023-03-17T15:42:47;6.22;;;3.25;;
71975;SDS011;68326;52.124;5.424;2023-03-17T15:45:14;5.15;;;3.30;;
71975;SDS011;68326;52.124;5.424;2023-03-17T15:47:42;5.18;;;3.03;;
71975;SDS011;68326;52.124;5.424;2023-03-17T15:52:43;7.30;;;3.10;;
71975;SDS011;68326;52.124;5.424;2023-03-17T15:55:15;5.78;;;3.20;;
71975;SDS011;68326;52.124;5.424;2023-03-17T15:57:45;8.18;;;3.15;;
71975;SDS011;68326;52.124;5.424;2023-03-17T16:00:20;6.32;;;3.08;;
71975;SDS011;68326;52.124;5.424;2023-03-17T16:02:49;7.13;;;2.83;;
71975;SDS011;68326;52.124;5.424;2023-03-17T16:05:23;5.90;;;3.10;;
71975;SDS011;68326;52.124;5.424;2023-03-17T16:07:51;5.85;;;2.80;;
71975;SDS011;68326;52.124;5.424;2023-03-17T16:12:51;5.68;;;3.00;;
71975;SDS011;68326;52.124;5.424;2023-03-17T16:15:19;5.53;;;2.72;;
71975;SDS011;68326;52.124;5.424;2023-03-17T16:17:50;5.23;;;3.13;;
71975;SDS011;68326;52.124;5.424;2023-03-17T16:20:23;6.00;;;3.03;;
71975;SDS011;68326;52.124;5.424;2023-03-17T16:22:53;5.70;;;3.33;;
71975;SDS011;68326;52.124;5.424;2023-03-17T16:25:25;5.95;;;3.25;;
71975;SDS011;68326;52.124;5.424;2023-03-17T16:27:55;7.15;;;3.10;;
71975;SDS011;68326;52.124;5.424;2023-03-17T16:30:24;6.17;;;3.20;;
71975;SDS011;68326;52.124;5.424;2023-03-17T16:32:54;8.02;;;3.95;;
71975;SDS011;68326;52.124;5.424;2023-03-17T16:35:24;8.07;;;3.78;;
71975;SDS011;68326;52.124;5.424;2023-03-17T16:37:51;7.85;;;4.22;;
71975;SDS011;68326;52.124;5.424;2023-03-17T16:40:26;7.45;;;4.00;;
71975;SDS011;68326;52.124;5.424;2023-03-17T16:42:58;7.67;;;3.73;;
71975;SDS011;68326;52.124;5.424;2023-03-17T16:45:26;7.65;;;3.45;;
71975;SDS011;68326;52.124;5.424;2023-03-17T16:47:54;9.30;;;3.97;;
71975;SDS011;68326;52.124;5.424;2023-03-17T16:50:22;6.95;;;3.72;;
71975;SDS011;68326;52.124;5.424;2023-03-17T16:52:51;6.80;;;3.90;;
71975;SDS011;68326;52.124;5.424;2023-03-17T16:55:18;8.57;;;3.60;;
71975;SDS011;68326;52.124;5.424;2023-03-17T16:57:46;9.18;;;4.10;;
71975;SDS011;68326;52.124;5.424;2023-03-17T17:00:19;7.03;;;3.40;;
71975;SDS011;68326;52.124;5.424;2023-03-17T17:02:48;7.53;;;3.50;;